createdAt,value
2022-10-13T00:00:35.572Z,0.00
2022-10-13T00:01:35.503Z,0.00
2022-10-13T00:02:35.507Z,0.00
2022-10-13T00:03:35.485Z,0.00
2022-10-13T00:04:35.459Z,0.00
2022-10-13T00:05:35.457Z,0.00
2022-10-13T00:06:35.445Z,0.00
2022-10-13T00:07:35.435Z,0.00
2022-10-13T00:08:35.437Z,0.00
2022-10-13T00:09:35.411Z,0.00
2022-10-13T00:10:35.396Z,0.00
2022-10-13T00:11:35.405Z,0.00
2022-10-13T00:12:35.380Z,0.00
2022-10-13T00:13:35.394Z,0.00
2022-10-13T00:14:35.357Z,0.00
2022-10-13T00:15:35.348Z,0.00
2022-10-13T00:16:35.340Z,0.00
2022-10-13T00:17:35.325Z,0.00
2022-10-13T00:18:35.341Z,0.00
2022-10-13T00:19:35.312Z,0.00
2022-10-13T00:20:35.294Z,0.00
2022-10-13T00:21:35.280Z,0.00
2022-10-13T00:22:35.268Z,0.00
2022-10-13T00:23:35.289Z,0.00
2022-10-13T00:24:35.263Z,0.00
2022-10-13T00:25:35.246Z,0.00
2022-10-13T00:26:35.229Z,0.00
2022-10-13T00:27:35.227Z,0.00
2022-10-13T00:28:35.273Z,0.00
2022-10-13T00:29:35.225Z,0.00
2022-10-13T00:30:35.181Z,0.00
2022-10-13T00:31:35.186Z,0.00
2022-10-13T00:32:35.164Z,0.00
2022-10-13T00:33:35.162Z,0.00
2022-10-13T00:34:35.154Z,0.00
2022-10-13T00:35:35.140Z,0.00
2022-10-13T00:36:35.140Z,0.00
2022-10-13T00:37:35.150Z,0.00
2022-10-13T00:38:35.092Z,0.00
2022-10-13T00:39:35.097Z,0.00
2022-10-13T00:40:35.077Z,0.00
2022-10-13T00:41:35.074Z,0.00
2022-10-13T00:42:35.062Z,0.00
2022-10-13T00:43:35.068Z,0.00
2022-10-13T00:44:35.043Z,0.00
2022-10-13T00:45:35.031Z,0.00
2022-10-13T00:46:35.005Z,0.00
2022-10-13T00:47:35.017Z,0.00
2022-10-13T00:48:35.005Z,0.00
2022-10-13T00:49:34.990Z,0.00
2022-10-13T00:50:34.960Z,0.00
2022-10-13T00:51:34.969Z,0.00
2022-10-13T00:52:34.959Z,0.00
2022-10-13T00:53:34.964Z,0.00
2022-10-13T00:54:34.942Z,0.00
2022-10-13T00:55:34.939Z,0.00
2022-10-13T00:56:34.904Z,0.00
2022-10-13T00:57:34.911Z,0.00
2022-10-13T00:58:34.890Z,0.00
2022-10-13T00:59:34.908Z,0.00
2022-10-13T01:00:34.921Z,0.00
2022-10-13T01:01:34.861Z,0.00
2022-10-13T01:02:34.836Z,0.00
2022-10-13T01:03:34.867Z,0.00
2022-10-13T01:04:34.842Z,0.00
2022-10-13T01:05:34.814Z,0.00
2022-10-13T01:06:34.798Z,0.00
2022-10-13T01:07:34.798Z,0.00
2022-10-13T01:08:34.778Z,0.00
2022-10-13T01:09:34.789Z,0.00
2022-10-13T01:10:34.770Z,0.00
2022-10-13T01:11:34.760Z,0.00
2022-10-13T01:12:34.735Z,0.00
2022-10-13T01:13:34.729Z,0.00
2022-10-13T01:14:34.716Z,0.00
2022-10-13T01:15:34.746Z,0.00
2022-10-13T01:16:34.693Z,0.00
2022-10-13T01:17:34.694Z,0.00
2022-10-13T01:18:34.682Z,0.00
2022-10-13T01:19:34.676Z,0.00
2022-10-13T01:20:34.647Z,0.00
2022-10-13T01:21:34.647Z,0.00
2022-10-13T01:22:34.620Z,0.00
2022-10-13T01:23:34.653Z,0.00
2022-10-13T01:24:34.607Z,0.00
2022-10-13T01:25:34.598Z,0.00
2022-10-13T01:26:34.588Z,0.00
2022-10-13T01:27:34.591Z,0.00
2022-10-13T01:28:34.627Z,0.00
2022-10-13T01:29:34.566Z,0.00
2022-10-13T01:30:34.538Z,0.00
2022-10-13T01:31:34.543Z,0.00
2022-10-13T01:32:34.521Z,0.00
2022-10-13T01:33:34.544Z,0.00
2022-10-13T01:34:34.496Z,0.00
2022-10-13T01:35:34.565Z,0.00
2022-10-13T01:36:34.478Z,0.00
2022-10-13T01:37:34.477Z,0.00
2022-10-13T01:38:34.469Z,0.00
2022-10-13T01:39:34.480Z,0.00
2022-10-13T01:40:34.439Z,0.00
2022-10-13T01:41:34.437Z,0.00
2022-10-13T01:42:34.426Z,0.00
2022-10-13T01:43:34.422Z,0.00
2022-10-13T01:44:34.411Z,0.00
2022-10-13T01:45:34.386Z,0.00
2022-10-13T01:46:34.373Z,0.00
2022-10-13T01:47:34.379Z,0.00
2022-10-13T01:48:34.372Z,0.00
2022-10-13T01:49:34.354Z,0.00
2022-10-13T01:50:34.348Z,0.00
2022-10-13T01:51:34.326Z,0.00
2022-10-13T01:52:34.322Z,0.00
2022-10-13T01:53:34.299Z,0.00
2022-10-13T01:54:34.324Z,0.00
2022-10-13T01:55:34.291Z,0.00
2022-10-13T01:56:34.263Z,0.00
2022-10-13T01:57:34.259Z,0.00
2022-10-13T01:58:34.248Z,0.00
2022-10-13T01:59:34.318Z,0.00
2022-10-13T02:00:34.288Z,0.00
2022-10-13T02:01:34.222Z,0.00
2022-10-13T02:02:34.203Z,0.00
2022-10-13T02:03:34.205Z,0.00
2022-10-13T02:04:34.181Z,0.00
2022-10-13T02:05:34.206Z,0.00
2022-10-13T02:06:34.214Z,0.00
2022-10-13T02:07:34.158Z,0.00
2022-10-13T02:08:34.147Z,0.00
2022-10-13T02:09:34.151Z,0.00
2022-10-13T02:10:34.133Z,0.00
2022-10-13T02:11:34.121Z,0.00
2022-10-13T02:12:34.096Z,0.00
2022-10-13T02:13:34.092Z,0.00
2022-10-13T02:14:34.075Z,0.00
2022-10-13T02:15:34.106Z,0.00
2022-10-13T02:16:34.067Z,0.00
2022-10-13T02:17:34.045Z,0.00
2022-10-13T02:18:34.034Z,0.00
2022-10-13T02:19:34.038Z,0.00
2022-10-13T02:20:34.014Z,0.00
2022-10-13T02:21:34.032Z,0.00
2022-10-13T02:22:33.997Z,0.00
2022-10-13T02:23:33.991Z,0.00
2022-10-13T02:24:33.966Z,0.00
2022-10-13T02:25:33.961Z,0.00
2022-10-13T02:26:33.953Z,0.00
2022-10-13T02:27:33.959Z,0.00
2022-10-13T02:28:33.980Z,0.00
2022-10-13T02:29:33.917Z,0.00
2022-10-13T02:30:33.922Z,0.00
2022-10-13T02:31:33.913Z,0.00
2022-10-13T02:32:33.910Z,0.00
2022-10-13T02:33:33.871Z,0.00
2022-10-13T02:34:33.867Z,0.00
2022-10-13T02:35:33.855Z,0.00
2022-10-13T02:36:33.866Z,0.00
2022-10-13T02:37:33.846Z,0.00
2022-10-13T02:38:33.831Z,0.00
2022-10-13T02:39:34.533Z,0.00
2022-10-13T02:40:33.811Z,0.00
2022-10-13T02:41:33.785Z,0.00
2022-10-13T02:42:33.795Z,0.00
2022-10-13T02:43:33.786Z,0.00
2022-10-13T02:44:33.769Z,0.00
2022-10-13T02:45:33.746Z,0.00
2022-10-13T02:46:33.747Z,0.00
2022-10-13T02:47:33.743Z,0.00
2022-10-13T02:48:33.717Z,0.00
2022-10-13T02:49:33.698Z,0.00
2022-10-13T02:50:33.702Z,0.00
2022-10-13T02:51:38.977Z,0.00
2022-10-13T02:52:34.074Z,0.00
2022-10-13T02:53:33.660Z,0.00
2022-10-13T02:54:33.663Z,0.00
2022-10-13T02:55:33.638Z,0.00
2022-10-13T02:56:33.639Z,0.00
2022-10-13T02:57:33.613Z,0.00
2022-10-13T02:58:33.616Z,0.00
2022-10-13T02:59:33.598Z,0.00
2022-10-13T03:00:33.631Z,0.00
2022-10-13T03:01:33.574Z,0.00
2022-10-13T03:02:33.581Z,0.00
2022-10-13T03:03:33.668Z,0.00
2022-10-13T03:04:33.557Z,0.00
2022-10-13T03:05:33.524Z,0.00
2022-10-13T03:06:33.521Z,0.00
2022-10-13T03:07:33.529Z,0.00
2022-10-13T03:08:33.529Z,0.00
2022-10-13T03:09:33.505Z,0.00
2022-10-13T03:10:33.480Z,0.00
2022-10-13T03:11:33.459Z,0.00
2022-10-13T03:12:33.463Z,0.00
2022-10-13T03:13:33.443Z,0.00
2022-10-13T03:14:33.455Z,0.00
2022-10-13T03:15:33.429Z,0.00
2022-10-13T03:16:33.443Z,0.00
2022-10-13T03:17:33.413Z,0.00
2022-10-13T03:18:33.413Z,0.00
2022-10-13T03:19:33.397Z,0.00
2022-10-13T03:20:33.382Z,0.00
2022-10-13T03:21:33.355Z,0.00
2022-10-13T03:22:33.349Z,0.00
2022-10-13T03:23:33.365Z,0.00
2022-10-13T03:24:33.330Z,0.00
2022-10-13T03:25:33.324Z,0.00
2022-10-13T03:26:33.319Z,0.00
2022-10-13T03:27:33.294Z,0.00
2022-10-13T03:28:33.362Z,0.00
2022-10-13T03:29:33.280Z,0.00
2022-10-13T03:30:33.280Z,0.00
2022-10-13T03:31:33.256Z,0.00
2022-10-13T03:32:33.254Z,0.00
2022-10-13T03:33:33.227Z,0.00
2022-10-13T03:34:33.236Z,0.00
2022-10-13T03:35:33.238Z,0.00
2022-10-13T03:36:33.204Z,0.00
2022-10-13T03:37:33.190Z,0.00
2022-10-13T03:38:33.190Z,0.00
2022-10-13T03:39:33.169Z,0.00
2022-10-13T03:40:33.187Z,0.00
2022-10-13T03:41:33.153Z,0.00
2022-10-13T03:42:33.141Z,0.00
2022-10-13T03:43:33.124Z,0.00
2022-10-13T03:44:33.135Z,0.00
2022-10-13T03:45:33.122Z,0.00
2022-10-13T03:46:33.112Z,0.00
2022-10-13T03:47:33.078Z,0.00
2022-10-13T03:48:33.080Z,0.00
2022-10-13T03:49:33.066Z,0.00
2022-10-13T03:50:33.068Z,0.00
2022-10-13T03:51:33.040Z,0.00
2022-10-13T03:52:33.040Z,0.00
2022-10-13T03:53:33.014Z,0.00
2022-10-13T03:54:33.015Z,0.00
2022-10-13T03:55:33.014Z,0.00
2022-10-13T03:56:33.001Z,0.00
2022-10-13T03:57:32.973Z,0.00
2022-10-13T03:58:34.248Z,0.00
2022-10-13T03:59:36.604Z,0.00
2022-10-13T04:00:32.950Z,0.00
2022-10-13T04:01:32.993Z,0.00
2022-10-13T04:02:32.931Z,0.00
2022-10-13T04:03:32.907Z,0.00
2022-10-13T04:04:32.915Z,0.00
2022-10-13T04:05:32.887Z,0.00
2022-10-13T04:06:32.898Z,0.00
2022-10-13T04:07:32.872Z,0.00
2022-10-13T04:08:32.859Z,0.00
2022-10-13T04:09:32.864Z,0.00
2022-10-13T04:10:32.848Z,0.00
2022-10-13T04:11:32.843Z,0.00
2022-10-13T04:12:32.828Z,0.00
2022-10-13T04:13:32.811Z,0.00
2022-10-13T04:14:32.807Z,0.00
2022-10-13T04:15:32.794Z,0.00
2022-10-13T04:16:32.792Z,0.00
2022-10-13T04:17:32.780Z,0.00
2022-10-13T04:18:32.759Z,0.00
2022-10-13T04:19:32.751Z,0.00
2022-10-13T04:20:32.740Z,0.00
2022-10-13T04:21:32.722Z,0.00
2022-10-13T04:22:32.726Z,0.00
2022-10-13T04:23:32.696Z,0.00
2022-10-13T04:24:32.698Z,0.00
2022-10-13T04:25:32.676Z,0.00
2022-10-13T04:26:32.672Z,0.00
2022-10-13T04:27:32.666Z,0.00
2022-10-13T04:28:32.725Z,0.00
2022-10-13T04:29:32.635Z,0.00
2022-10-13T04:30:32.618Z,0.00
2022-10-13T04:31:32.624Z,0.00
2022-10-13T04:32:32.638Z,0.00
2022-10-13T04:33:32.594Z,0.00
2022-10-13T04:34:32.582Z,0.00
2022-10-13T04:35:32.568Z,0.00
2022-10-13T04:36:32.564Z,0.00
2022-10-13T04:37:32.566Z,0.00
2022-10-13T04:38:32.563Z,0.00
2022-10-13T04:39:32.538Z,0.00
2022-10-13T04:40:32.524Z,0.00
2022-10-13T04:41:32.499Z,0.00
2022-10-13T04:42:32.495Z,0.00
2022-10-13T04:43:32.502Z,0.00
2022-10-13T04:44:32.474Z,0.00
2022-10-13T04:45:32.450Z,0.00
2022-10-13T04:46:33.150Z,0.00
2022-10-13T04:47:36.907Z,0.00
2022-10-13T04:48:32.492Z,0.00
2022-10-13T04:49:32.422Z,0.00
2022-10-13T04:50:32.417Z,0.00
2022-10-13T04:51:32.402Z,0.00
2022-10-13T04:52:32.394Z,0.00
2022-10-13T04:53:32.396Z,0.00
2022-10-13T04:54:32.384Z,0.00
2022-10-13T04:55:32.350Z,0.00
2022-10-13T04:56:32.353Z,0.00
2022-10-13T04:57:32.326Z,0.00
2022-10-13T04:58:32.334Z,0.00
2022-10-13T04:59:32.320Z,0.00
2022-10-13T05:00:32.345Z,0.00
2022-10-13T05:01:32.295Z,0.00
2022-10-13T05:02:32.303Z,0.00
2022-10-13T05:03:32.277Z,0.00
2022-10-13T05:04:32.288Z,0.00
2022-10-13T05:05:32.240Z,0.00
2022-10-13T05:06:32.235Z,0.00
2022-10-13T05:07:32.225Z,0.00
2022-10-13T05:08:32.228Z,0.00
2022-10-13T05:09:32.220Z,0.00
2022-10-13T05:10:34.755Z,0.00
2022-10-13T05:11:32.178Z,0.00
2022-10-13T05:12:32.183Z,0.00
2022-10-13T05:13:32.310Z,0.00
2022-10-13T05:14:32.163Z,0.00
2022-10-13T05:15:32.144Z,0.00
2022-10-13T05:16:32.133Z,0.00
2022-10-13T05:17:35.307Z,0.00
2022-10-13T05:18:32.127Z,0.00
2022-10-13T05:19:32.106Z,0.00
2022-10-13T05:20:32.095Z,0.00
2022-10-13T05:21:32.070Z,0.00
2022-10-13T05:22:32.145Z,0.00
2022-10-13T05:23:32.059Z,0.00
2022-10-13T05:24:32.083Z,0.00
2022-10-13T05:25:33.996Z,0.00
2022-10-13T05:26:31.983Z,1.00
2022-10-13T05:27:31.954Z,1.00
2022-10-13T05:28:31.996Z,1.00
2022-10-13T05:29:31.942Z,1.00
2022-10-13T05:30:31.925Z,1.00
2022-10-13T05:31:31.981Z,0.00
2022-10-13T05:32:31.968Z,0.00
2022-10-13T05:33:31.951Z,0.00
2022-10-13T05:34:31.975Z,0.00
2022-10-13T05:35:31.878Z,1.00
2022-10-13T05:36:31.874Z,1.00
2022-10-13T05:37:31.838Z,1.00
2022-10-13T05:38:31.850Z,8.00
2022-10-13T05:39:31.827Z,5.00
2022-10-13T05:40:31.847Z,8.00
2022-10-13T05:41:31.803Z,7.00
2022-10-13T05:42:31.798Z,3.00
2022-10-13T05:43:31.784Z,4.00
2022-10-13T05:44:31.777Z,6.00
2022-10-13T05:45:31.793Z,11.00
2022-10-13T05:46:31.755Z,12.00
2022-10-13T05:47:31.753Z,12.00
2022-10-13T05:48:31.737Z,18.00
2022-10-13T05:49:31.713Z,20.00
2022-10-13T05:50:31.708Z,28.00
2022-10-13T05:51:31.722Z,28.00
2022-10-13T05:52:31.715Z,31.00
2022-10-13T05:53:31.677Z,34.00
2022-10-13T05:54:31.672Z,34.00
2022-10-13T05:55:31.658Z,35.00
2022-10-13T05:56:31.654Z,38.00
2022-10-13T05:57:31.658Z,43.00
2022-10-13T05:58:31.622Z,50.00
2022-10-13T05:59:31.613Z,56.00
2022-10-13T06:00:31.615Z,62.00
2022-10-13T06:01:31.643Z,66.00
2022-10-13T06:02:31.584Z,70.00
2022-10-13T06:03:31.578Z,75.00
2022-10-13T06:04:31.576Z,80.00
2022-10-13T06:05:31.537Z,86.00
2022-10-13T06:06:31.856Z,91.00
2022-10-13T06:07:31.539Z,95.00
2022-10-13T06:08:31.691Z,102.00
2022-10-13T06:09:31.499Z,107.00
2022-10-13T06:10:31.500Z,117.00
2022-10-13T06:11:31.489Z,124.00
2022-10-13T06:12:31.501Z,129.00
2022-10-13T06:13:31.446Z,131.00
2022-10-13T06:14:31.455Z,137.00
2022-10-13T06:15:31.455Z,145.00
2022-10-13T06:16:31.454Z,155.00
2022-10-13T06:17:31.414Z,161.00
2022-10-13T06:18:31.420Z,166.00
2022-10-13T06:19:31.412Z,174.00
2022-10-13T06:20:31.413Z,181.00
2022-10-13T06:21:31.371Z,193.00
2022-10-13T06:22:31.362Z,198.00
2022-10-13T06:23:31.370Z,208.00
2022-10-13T06:24:31.353Z,221.00
2022-10-13T06:25:31.361Z,228.00
2022-10-13T06:26:31.342Z,240.00
2022-10-13T06:27:31.320Z,247.00
2022-10-13T06:28:31.341Z,258.00
2022-10-13T06:29:31.380Z,271.00
2022-10-13T06:30:31.280Z,278.00
2022-10-13T06:31:31.306Z,288.00
2022-10-13T06:32:31.264Z,300.00
2022-10-13T06:33:31.247Z,316.00
2022-10-13T06:34:31.238Z,330.00
2022-10-13T06:35:31.259Z,349.00
2022-10-13T06:36:31.224Z,370.00
2022-10-13T06:37:31.206Z,391.00
2022-10-13T06:38:31.198Z,417.00
2022-10-13T06:39:31.183Z,443.00
2022-10-13T06:40:31.178Z,466.00
2022-10-13T06:41:31.174Z,487.00
2022-10-13T06:42:31.146Z,508.00
2022-10-13T06:43:38.922Z,522.00
2022-10-13T06:44:31.141Z,541.00
2022-10-13T06:45:31.147Z,555.00
2022-10-13T06:46:31.142Z,550.00
2022-10-13T06:47:31.103Z,556.00
2022-10-13T06:48:31.085Z,578.00
2022-10-13T06:49:31.078Z,558.00
2022-10-13T06:50:31.094Z,560.00
2022-10-13T06:51:31.059Z,528.00
2022-10-13T06:52:31.063Z,515.00
2022-10-13T06:53:31.045Z,516.00
2022-10-13T06:54:31.142Z,516.00
2022-10-13T06:55:31.030Z,460.00
2022-10-13T06:56:31.009Z,436.00
2022-10-13T06:57:30.997Z,431.00
2022-10-13T06:58:30.971Z,390.00
2022-10-13T06:59:30.979Z,347.00
2022-10-13T07:00:31.035Z,325.00
2022-10-13T07:01:30.953Z,319.00
2022-10-13T07:02:30.948Z,313.00
2022-10-13T07:03:30.930Z,336.00
2022-10-13T07:04:30.913Z,355.00
2022-10-13T07:05:30.905Z,408.00
2022-10-13T07:06:30.945Z,525.00
2022-10-13T07:07:30.886Z,603.00
2022-10-13T07:08:30.874Z,640.00
2022-10-13T07:09:30.866Z,651.00
2022-10-13T07:10:30.843Z,660.00
2022-10-13T07:11:30.830Z,686.00
2022-10-13T07:12:30.931Z,696.00
2022-10-13T07:13:33.570Z,664.00
2022-10-13T07:14:30.803Z,605.00
2022-10-13T07:15:30.801Z,608.00
2022-10-13T07:16:30.779Z,598.00
2022-10-13T07:17:30.778Z,590.00
2022-10-13T07:18:30.776Z,580.00
2022-10-13T07:19:30.760Z,502.00
2022-10-13T07:20:30.738Z,462.00
2022-10-13T07:21:30.739Z,388.00
2022-10-13T07:22:30.716Z,356.00
2022-10-13T07:23:30.717Z,374.00
2022-10-13T07:24:30.727Z,329.00
2022-10-13T07:25:30.700Z,294.00
2022-10-13T07:26:30.675Z,393.00
2022-10-13T07:27:30.661Z,479.00
2022-10-13T07:28:30.679Z,596.00
2022-10-13T07:29:30.651Z,535.00
2022-10-13T07:30:30.641Z,456.00
2022-10-13T07:31:30.646Z,522.00
2022-10-13T07:32:30.604Z,594.00
2022-10-13T07:33:30.612Z,654.00
2022-10-13T07:34:30.596Z,533.00
2022-10-13T07:35:31.084Z,548.00
2022-10-13T07:36:30.624Z,478.00
2022-10-13T07:37:30.556Z,433.00
2022-10-13T07:38:30.560Z,325.00
2022-10-13T07:39:30.546Z,441.00
2022-10-13T07:40:30.524Z,584.00
2022-10-13T07:41:30.521Z,707.00
2022-10-13T07:42:30.538Z,693.00
2022-10-13T07:43:30.488Z,673.00
2022-10-13T07:44:30.753Z,638.00
2022-10-13T07:45:30.472Z,726.00
2022-10-13T07:46:30.473Z,805.00
2022-10-13T07:47:30.451Z,755.00
2022-10-13T07:48:30.452Z,661.00
2022-10-13T07:49:30.429Z,589.00
2022-10-13T07:50:30.413Z,564.00
2022-10-13T07:51:30.430Z,538.00
2022-10-13T07:52:30.400Z,495.00
2022-10-13T07:53:30.394Z,395.00
2022-10-13T07:54:30.385Z,316.00
2022-10-13T07:55:30.357Z,270.00
2022-10-13T07:56:30.349Z,253.00
2022-10-13T07:57:30.351Z,240.00
2022-10-13T07:58:30.325Z,230.00
2022-10-13T07:59:30.337Z,230.00
2022-10-13T08:00:30.302Z,224.00
2022-10-13T08:01:30.325Z,234.00
2022-10-13T08:02:30.312Z,230.00
2022-10-13T08:03:30.340Z,244.00
2022-10-13T08:04:30.289Z,252.00
2022-10-13T08:05:30.256Z,263.00
2022-10-13T08:06:30.364Z,285.00
2022-10-13T08:07:30.241Z,286.00
2022-10-13T08:08:30.207Z,271.00
2022-10-13T08:09:30.222Z,273.00
2022-10-13T08:10:30.213Z,300.00
2022-10-13T08:11:30.184Z,283.00
2022-10-13T08:12:30.178Z,312.00
2022-10-13T08:13:30.181Z,322.00
2022-10-13T08:14:30.345Z,330.00
2022-10-13T08:15:30.209Z,322.00
2022-10-13T08:16:30.128Z,336.00
2022-10-13T08:17:30.133Z,368.00
2022-10-13T08:18:30.115Z,366.00
2022-10-13T08:19:30.114Z,366.00
2022-10-13T08:20:40.893Z,367.00
2022-10-13T08:22:30.092Z,397.00
2022-10-13T08:23:30.084Z,455.00
2022-10-13T08:24:30.039Z,470.00
2022-10-13T08:25:30.081Z,562.00
2022-10-13T08:26:30.041Z,498.00
2022-10-13T08:27:49.652Z,439.00
2022-10-13T08:28:30.112Z,404.00
2022-10-13T08:29:30.068Z,417.00
2022-10-13T08:30:30.129Z,426.00
2022-10-13T08:31:30.406Z,446.00
2022-10-13T08:32:30.009Z,537.00
2022-10-13T08:33:29.959Z,547.00
2022-10-13T08:34:29.968Z,556.00
2022-10-13T08:35:34.117Z,517.00
2022-10-13T08:36:29.923Z,529.00
2022-10-13T08:37:29.945Z,603.00
2022-10-13T08:38:29.902Z,689.00
2022-10-13T08:39:29.900Z,724.00
2022-10-13T08:40:29.869Z,698.00
2022-10-13T08:41:29.887Z,820.00
2022-10-13T08:42:29.882Z,966.00
2022-10-13T08:43:29.859Z,1018.00
2022-10-13T08:45:41.026Z,1023.00
2022-10-13T08:46:29.826Z,1056.00
2022-10-13T08:47:29.842Z,1148.00
2022-10-13T08:48:29.832Z,1222.00
2022-10-13T08:49:29.801Z,1268.00
2022-10-13T08:50:29.784Z,1307.00
2022-10-13T08:51:29.772Z,1266.00
2022-10-13T08:52:29.739Z,1191.00
2022-10-13T08:53:29.776Z,1031.00
2022-10-13T08:54:29.735Z,970.00
2022-10-13T08:55:29.725Z,1046.00
2022-10-13T08:56:29.716Z,1217.00
2022-10-13T08:57:29.703Z,1380.00
2022-10-13T08:58:29.729Z,1598.00
2022-10-13T08:59:29.697Z,1673.00
2022-10-13T09:00:29.757Z,1629.00
2022-10-13T09:01:29.706Z,1609.00
2022-10-13T09:02:29.648Z,1742.00
2022-10-13T09:03:29.644Z,1981.00
2022-10-13T09:04:29.626Z,2115.00
2022-10-13T09:05:29.627Z,2353.00
2022-10-13T09:06:29.599Z,2522.00
2022-10-13T09:07:29.600Z,2419.00
2022-10-13T09:08:29.607Z,2013.00
2022-10-13T09:09:29.588Z,1933.00
2022-10-13T09:10:29.558Z,1908.00
2022-10-13T09:11:29.547Z,1830.00
2022-10-13T09:12:29.536Z,1801.00
2022-10-13T09:13:29.536Z,1704.00
2022-10-13T09:14:29.720Z,1720.00
2022-10-13T09:15:29.529Z,1690.00
2022-10-13T09:16:29.486Z,1626.00
2022-10-13T09:17:29.491Z,1633.00
2022-10-13T09:18:29.482Z,1613.00
2022-10-13T09:19:29.473Z,1656.00
2022-10-13T09:20:29.483Z,1691.00
2022-10-13T09:21:29.449Z,1674.00
2022-10-13T09:22:29.449Z,1790.00
2022-10-13T09:23:29.428Z,1829.00
2022-10-13T09:24:29.418Z,1825.00
2022-10-13T09:25:29.403Z,1705.00
2022-10-13T09:26:29.422Z,1211.00
2022-10-13T09:27:29.376Z,1136.00
2022-10-13T09:28:29.421Z,1443.00
2022-10-13T09:29:29.381Z,1253.00
2022-10-13T09:30:29.358Z,886.00
2022-10-13T09:31:29.416Z,866.00
2022-10-13T09:32:29.312Z,945.00
2022-10-13T09:33:29.317Z,847.00
2022-10-13T09:34:29.301Z,837.00
2022-10-13T09:35:29.298Z,802.00
2022-10-13T09:36:29.277Z,790.00
2022-10-13T09:37:29.279Z,740.00
2022-10-13T09:38:29.248Z,717.00
2022-10-13T09:39:29.243Z,732.00
2022-10-13T09:40:29.232Z,717.00
2022-10-13T09:41:29.239Z,735.00
2022-10-13T09:42:29.212Z,762.00
2022-10-13T09:43:29.201Z,672.00
2022-10-13T09:44:29.197Z,556.00
2022-10-13T09:45:29.191Z,568.00
2022-10-13T09:46:29.202Z,596.00
2022-10-13T09:47:29.161Z,638.00
2022-10-13T09:48:29.136Z,670.00
2022-10-13T09:49:29.157Z,747.00
2022-10-13T09:50:29.134Z,811.00
2022-10-13T09:51:29.117Z,758.00
2022-10-13T09:52:29.123Z,885.00
2022-10-13T09:53:29.105Z,958.00
2022-10-13T09:54:29.084Z,930.00
2022-10-13T09:55:32.397Z,1086.00
2022-10-13T09:56:29.055Z,1187.00
2022-10-13T09:57:29.063Z,1103.00
2022-10-13T09:58:29.039Z,986.00
2022-10-13T09:59:29.044Z,799.00
2022-10-13T10:00:29.027Z,759.00
2022-10-13T10:01:29.024Z,868.00
2022-10-13T10:02:29.451Z,899.00
2022-10-13T10:03:29.003Z,891.00
2022-10-13T10:04:29.023Z,1114.00
2022-10-13T10:05:28.961Z,1213.00
2022-10-13T10:06:28.951Z,1416.00
2022-10-13T10:07:29.003Z,1666.00
2022-10-13T10:08:33.875Z,1877.00
2022-10-13T10:09:28.980Z,2095.00
2022-10-13T10:10:28.906Z,2309.00
2022-10-13T10:11:28.893Z,2384.00
2022-10-13T10:12:28.877Z,2521.00
2022-10-13T10:13:28.899Z,2553.00
2022-10-13T10:14:28.861Z,2617.00
2022-10-13T10:15:28.854Z,2622.00
2022-10-13T10:16:28.839Z,2662.00
2022-10-13T10:17:28.868Z,2702.00
2022-10-13T10:18:28.914Z,2738.00
2022-10-13T10:19:28.804Z,2757.00
2022-10-13T10:20:28.790Z,2756.00
2022-10-13T10:21:28.889Z,2808.00
2022-10-13T10:22:28.773Z,2692.00
2022-10-13T10:23:28.796Z,2734.00
2022-10-13T10:24:28.760Z,2929.00
2022-10-13T10:25:28.756Z,3004.00
2022-10-13T10:26:32.467Z,3035.00
2022-10-13T10:27:28.739Z,3158.00
2022-10-13T10:28:28.830Z,3195.00
2022-10-13T10:29:28.714Z,3351.00
2022-10-13T10:30:28.692Z,3500.00
2022-10-13T10:31:28.684Z,3618.00
2022-10-13T10:32:28.657Z,3815.00
2022-10-13T10:33:28.682Z,3852.00
2022-10-13T10:34:28.650Z,3950.00
2022-10-13T10:35:28.635Z,4390.00
2022-10-13T10:36:28.625Z,4054.00
2022-10-13T10:37:28.618Z,3566.00
2022-10-13T10:38:28.617Z,3056.00
2022-10-13T10:39:28.600Z,4068.00
2022-10-13T10:40:28.590Z,3095.00
2022-10-13T10:41:28.583Z,3202.00
2022-10-13T10:42:28.589Z,3363.00
2022-10-13T10:43:28.581Z,3502.00
2022-10-13T10:44:28.553Z,3583.00
2022-10-13T10:45:28.555Z,3607.00
2022-10-13T10:46:28.567Z,3733.00
2022-10-13T10:47:28.999Z,3831.00
2022-10-13T10:48:28.503Z,3667.00
2022-10-13T10:49:28.523Z,3804.00
2022-10-13T10:50:28.475Z,3751.00
2022-10-13T10:51:28.467Z,3607.00
2022-10-13T10:52:28.450Z,3598.00
2022-10-13T10:53:28.474Z,3915.00
2022-10-13T10:54:28.424Z,3855.00
2022-10-13T10:55:28.447Z,3723.00
2022-10-13T10:56:28.393Z,3728.00
2022-10-13T10:57:28.406Z,3390.00
2022-10-13T10:58:28.394Z,5158.00
2022-10-13T10:59:28.393Z,4130.00
2022-10-13T11:01:28.405Z,4925.00
2022-10-13T11:02:28.348Z,5169.00
2022-10-13T11:03:28.334Z,4417.00
2022-10-13T11:04:28.348Z,4882.00
2022-10-13T11:05:28.305Z,4258.00
2022-10-13T11:06:28.319Z,4530.00
2022-10-13T11:07:28.289Z,4635.00
2022-10-13T11:08:28.353Z,4412.00
2022-10-13T11:09:28.264Z,4137.00
2022-10-13T11:10:28.307Z,9335.00
2022-10-13T11:11:31.035Z,5964.00
2022-10-13T11:12:28.272Z,4600.00
2022-10-13T11:13:28.221Z,4741.00
2022-10-13T11:14:28.218Z,4855.00
2022-10-13T11:15:28.221Z,5760.00
2022-10-13T11:16:28.222Z,8163.00
2022-10-13T11:17:28.172Z,6748.00
2022-10-13T11:18:28.176Z,5908.00
2022-10-13T11:19:28.192Z,6666.00
2022-10-13T11:20:28.157Z,8613.00
2022-10-13T11:21:28.142Z,7810.00
2022-10-13T11:22:28.210Z,8768.00
2022-10-13T11:23:28.124Z,8707.00
2022-10-13T11:24:28.119Z,8373.00
2022-10-13T11:25:28.088Z,8633.00
2022-10-13T11:26:28.085Z,9078.00
2022-10-13T11:27:28.091Z,7230.00
2022-10-13T11:28:28.105Z,6123.00
2022-10-13T11:29:28.070Z,16507.00
2022-10-13T11:31:32.081Z,20340.00
2022-10-13T11:32:28.096Z,16082.00
2022-10-13T11:33:28.002Z,10375.00
2022-10-13T11:34:28.002Z,7921.00
2022-10-13T11:35:28.016Z,7416.00
2022-10-13T11:36:27.989Z,7286.00
2022-10-13T11:37:27.969Z,7248.00
2022-10-13T11:38:27.976Z,6776.00
2022-10-13T11:39:28.181Z,6575.00
2022-10-13T11:40:27.945Z,8341.00
2022-10-13T11:41:27.915Z,10184.00
2022-10-13T11:42:27.913Z,13852.00
2022-10-13T11:43:27.914Z,9296.00
2022-10-13T11:45:27.877Z,12878.00
2022-10-13T11:46:27.873Z,11847.00
2022-10-13T11:47:27.866Z,7659.00
2022-10-13T11:48:27.896Z,6596.00
2022-10-13T11:49:27.840Z,6182.00
2022-10-13T11:50:27.855Z,9159.00
2022-10-13T11:51:27.817Z,6662.00
2022-10-13T11:52:27.835Z,7063.00
2022-10-13T11:53:27.796Z,6109.00
2022-10-13T11:54:27.815Z,6491.00
2022-10-13T11:55:27.768Z,6496.00
2022-10-13T11:56:27.772Z,4914.00
2022-10-13T11:57:27.744Z,4954.00
2022-10-13T11:58:27.742Z,4529.00
2022-10-13T11:59:27.754Z,4297.00
2022-10-13T12:00:27.715Z,4263.00
2022-10-13T12:01:27.705Z,4160.00
2022-10-13T12:02:27.822Z,4144.00
2022-10-13T12:03:27.720Z,3991.00
2022-10-13T12:04:27.685Z,3809.00
2022-10-13T12:05:27.673Z,3712.00
2022-10-13T12:06:27.681Z,3696.00
2022-10-13T12:07:27.639Z,3355.00
2022-10-13T12:08:27.644Z,2979.00
2022-10-13T12:09:27.629Z,3047.00
2022-10-13T12:10:27.609Z,3105.00
2022-10-13T12:11:27.607Z,2962.00
2022-10-13T12:12:27.599Z,2822.00
2022-10-13T12:13:27.582Z,2616.00
2022-10-13T12:14:27.674Z,2422.00
2022-10-13T12:15:27.564Z,2307.00
2022-10-13T12:16:27.557Z,2189.00
2022-10-13T12:17:27.893Z,2198.00
2022-10-13T12:18:27.530Z,2083.00
2022-10-13T12:19:27.557Z,2012.00
2022-10-13T12:20:27.513Z,1926.00
2022-10-13T12:21:27.490Z,1847.00
2022-10-13T12:22:27.496Z,1732.00
2022-10-13T12:23:27.478Z,1724.00
2022-10-13T12:24:27.472Z,1845.00
2022-10-13T12:25:27.471Z,1817.00
2022-10-13T12:26:27.434Z,1826.00
2022-10-13T12:27:27.434Z,1787.00
2022-10-13T12:28:27.485Z,1732.00
2022-10-13T12:29:27.415Z,1698.00
2022-10-13T12:30:27.408Z,1765.00
2022-10-13T12:31:27.419Z,2004.00
2022-10-13T12:32:27.403Z,2137.00
2022-10-13T12:33:27.364Z,2145.00
2022-10-13T12:34:27.381Z,2110.00
2022-10-13T12:35:27.364Z,1996.00
2022-10-13T12:36:29.959Z,1882.00
2022-10-13T12:37:27.318Z,1873.00
2022-10-13T12:38:27.317Z,1946.00
2022-10-13T12:39:27.316Z,2179.00
2022-10-13T12:40:27.296Z,2374.00
2022-10-13T12:41:27.303Z,2367.00
2022-10-13T12:42:27.272Z,2264.00
2022-10-13T12:43:27.272Z,2051.00
2022-10-13T12:44:27.247Z,2064.00
2022-10-13T12:45:27.235Z,2177.00
2022-10-13T12:46:27.283Z,2237.00
2022-10-13T12:47:27.241Z,2285.00
2022-10-13T12:48:27.210Z,2298.00